Terminal Aerodrome Forecast
Issued by NWS Bismarck, ND

Home | Current Version | Previous Version | Text Only | Print | Product List | Glossary On
Versions: 1 2 3 4 5 6 7 8 9 10 11 12 13 14 15 16 17 18
000
FTUS43 KBIS 241120
TAFISN
TAF
KISN 241120Z 2412/2512 17008KT P6SM FEW250
     FM241700 23012KT P6SM FEW100 FEW250
     FM242000 33013KT P6SM FEW100 FEW250
     FM250300 35008KT P6SM FEW120 FEW250=

USA.gov is the U.S. government's official web portal to all federal, state and local government web resources and services.